sensor_id;sensor_type;location;lat;lon;timestamp;pressure;altitude;pressure_sealevel;temperature;humidity
9538;BME280;4807;48.024;11.726;2023-04-27T00:00:39;94995.22;;;4.13;80.90
9538;BME280;4807;48.024;11.726;2023-04-27T00:03:48;94991.38;;;4.08;81.16
9538;BME280;4807;48.024;11.726;2023-04-27T00:06:57;94988.41;;;4.03;81.29
9538;BME280;4807;48.024;11.726;2023-04-27T00:10:07;94994.00;;;4.00;81.20
9538;BME280;4807;48.024;11.726;2023-04-27T00:13:15;94989.06;;;3.97;81.44
9538;BME280;4807;48.024;11.726;2023-04-27T00:16:24;94987.91;;;3.99;81.46
9538;BME280;4807;48.024;11.726;2023-04-27T00:19:34;94981.31;;;3.95;82.00
9538;BME280;4807;48.024;11.726;2023-04-27T00:22:42;94977.84;;;3.95;82.01
9538;BME280;4807;48.024;11.726;2023-04-27T00:25:50;94988.69;;;3.92;82.03
9538;BME280;4807;48.024;11.726;2023-04-27T00:28:58;94980.34;;;3.96;82.04
9538;BME280;4807;48.024;11.726;2023-04-27T00:32:06;94978.69;;;3.95;81.43
9538;BME280;4807;48.024;11.726;2023-04-27T00:35:16;94977.88;;;4.03;81.63
9538;BME280;4807;48.024;11.726;2023-04-27T00:38:24;94979.69;;;4.02;81.35
9538;BME280;4807;48.024;11.726;2023-04-27T00:41:35;94975.41;;;4.01;81.43
9538;BME280;4807;48.024;11.726;2023-04-27T00:44:44;94966.03;;;4.07;82.00
9538;BME280;4807;48.024;11.726;2023-04-27T00:47:53;94972.78;;;4.09;81.53
9538;BME280;4807;48.024;11.726;2023-04-27T00:51:04;94971.47;;;4.05;81.97
9538;BME280;4807;48.024;11.726;2023-04-27T00:54:13;94967.00;;;4.06;81.64
9538;BME280;4807;48.024;11.726;2023-04-27T00:57:22;94973.44;;;4.03;81.76
9538;BME280;4807;48.024;11.726;2023-04-27T01:00:30;94971.66;;;4.12;81.51
9538;BME280;4807;48.024;11.726;2023-04-27T01:03:40;94973.63;;;4.18;81.19
9538;BME280;4807;48.024;11.726;2023-04-27T01:06:50;94965.41;;;4.21;81.45
9538;BME280;4807;48.024;11.726;2023-04-27T01:09:58;94965.91;;;4.25;81.19
9538;BME280;4807;48.024;11.726;2023-04-27T01:13:06;94969.53;;;4.23;81.61
9538;BME280;4807;48.024;11.726;2023-04-27T01:16:16;94976.63;;;4.31;81.34
9538;BME280;4807;48.024;11.726;2023-04-27T01:19:25;94979.91;;;4.33;81.39
9538;BME280;4807;48.024;11.726;2023-04-27T01:22:34;94978.41;;;4.31;81.84
9538;BME280;4807;48.024;11.726;2023-04-27T01:25:44;94974.00;;;4.39;81.20
9538;BME280;4807;48.024;11.726;2023-04-27T01:28:52;94983.41;;;4.42;81.22
9538;BME280;4807;48.024;11.726;2023-04-27T01:32:00;94990.03;;;4.54;80.32
9538;BME280;4807;48.024;11.726;2023-04-27T01:35:09;94979.78;;;4.43;80.71
9538;BME280;4807;48.024;11.726;2023-04-27T01:38:17;94988.16;;;4.38;81.39
9538;BME280;4807;48.024;11.726;2023-04-27T01:41:27;94983.09;;;4.45;80.56
9538;BME280;4807;48.024;11.726;2023-04-27T01:44:35;94988.66;;;4.34;80.25
9538;BME280;4807;48.024;11.726;2023-04-27T01:47:44;94985.97;;;4.17;81.13
9538;BME280;4807;48.024;11.726;2023-04-27T01:50:52;94987.94;;;4.15;81.54
9538;BME280;4807;48.024;11.726;2023-04-27T01:54:00;94991.56;;;4.14;81.81
9538;BME280;4807;48.024;11.726;2023-04-27T01:57:10;94979.88;;;4.17;81.90
9538;BME280;4807;48.024;11.726;2023-04-27T02:00:20;94986.97;;;4.16;81.95
9538;BME280;4807;48.024;11.726;2023-04-27T02:03:28;94984.31;;;4.16;82.53
9538;BME280;4807;48.024;11.726;2023-04-27T02:06:36;94987.81;;;4.33;82.03
9538;BME280;4807;48.024;11.726;2023-04-27T02:09:45;94993.25;;;4.32;81.91
9538;BME280;4807;48.024;11.726;2023-04-27T02:12:55;94997.69;;;4.31;81.69
9538;BME280;4807;48.024;11.726;2023-04-27T02:16:04;94994.88;;;4.16;82.39
9538;BME280;4807;48.024;11.726;2023-04-27T02:19:13;94994.16;;;3.98;82.18
9538;BME280;4807;48.024;11.726;2023-04-27T02:22:21;94992.69;;;3.96;81.99
9538;BME280;4807;48.024;11.726;2023-04-27T02:25:29;94995.09;;;3.81;82.45
9538;BME280;4807;48.024;11.726;2023-04-27T02:28:39;94992.44;;;3.73;82.30
9538;BME280;4807;48.024;11.726;2023-04-27T02:31:47;95006.25;;;3.75;82.43
9538;BME280;4807;48.024;11.726;2023-04-27T02:34:56;95003.41;;;3.68;83.46
9538;BME280;4807;48.024;11.726;2023-04-27T02:38:06;95006.06;;;3.68;82.69
9538;BME280;4807;48.024;11.726;2023-04-27T02:41:17;95001.31;;;3.72;83.46
9538;BME280;4807;48.024;11.726;2023-04-27T02:44:26;95012.34;;;3.50;84.33
9538;BME280;4807;48.024;11.726;2023-04-27T02:47:34;95011.38;;;3.51;83.95
9538;BME280;4807;48.024;11.726;2023-04-27T02:50:43;95007.50;;;3.63;83.46
9538;BME280;4807;48.024;11.726;2023-04-27T02:53:52;95010.97;;;3.63;82.95
9538;BME280;4807;48.024;11.726;2023-04-27T02:57:01;95010.94;;;3.55;83.34
9538;BME280;4807;48.024;11.726;2023-04-27T03:00:12;95015.31;;;3.47;83.69
9538;BME280;4807;48.024;11.726;2023-04-27T03:03:20;95010.34;;;3.43;84.51
9538;BME280;4807;48.024;11.726;2023-04-27T03:06:29;95011.53;;;3.49;84.17
9538;BME280;4807;48.024;11.726;2023-04-27T03:09:37;95010.09;;;3.55;83.74
9538;BME280;4807;48.024;11.726;2023-04-27T03:12:45;95013.09;;;3.60;83.18
9538;BME280;4807;48.024;11.726;2023-04-27T03:15:55;95006.50;;;3.56;83.21
9538;BME280;4807;48.024;11.726;2023-04-27T03:19:03;95009.72;;;3.50;83.19
9538;BME280;4807;48.024;11.726;2023-04-27T03:22:12;95008.19;;;3.65;83.15
9538;BME280;4807;48.024;11.726;2023-04-27T03:25:21;95008.16;;;3.57;83.55
9538;BME280;4807;48.024;11.726;2023-04-27T03:28:29;95018.03;;;3.63;82.74
9538;BME280;4807;48.024;11.726;2023-04-27T03:31:39;95021.03;;;3.68;83.48
9538;BME280;4807;48.024;11.726;2023-04-27T03:34:49;95018.13;;;3.79;82.73
9538;BME280;4807;48.024;11.726;2023-04-27T03:37:58;95015.81;;;3.84;82.76
9538;BME280;4807;48.024;11.726;2023-04-27T03:41:06;95009.91;;;3.90;82.65
9538;BME280;4807;48.024;11.726;2023-04-27T03:44:15;95024.59;;;3.93;83.43
9538;BME280;4807;48.024;11.726;2023-04-27T03:47:24;95028.91;;;4.02;82.48
9538;BME280;4807;48.024;11.726;2023-04-27T03:50:33;95030.44;;;4.12;82.98
9538;BME280;4807;48.024;11.726;2023-04-27T03:53:41;95025.25;;;3.95;83.19
9538;BME280;4807;48.024;11.726;2023-04-27T03:56:50;95024.34;;;4.12;82.60
9538;BME280;4807;48.024;11.726;2023-04-27T03:59:58;95026.19;;;4.19;82.27
9538;BME280;4807;48.024;11.726;2023-04-27T04:03:09;95029.97;;;4.25;82.60
9538;BME280;4807;48.024;11.726;2023-04-27T04:06:17;95030.97;;;4.32;82.14
9538;BME280;4807;48.024;11.726;2023-04-27T04:09:25;95033.47;;;4.42;81.93
9538;BME280;4807;48.024;11.726;2023-04-27T04:12:34;95034.47;;;4.41;82.02
9538;BME280;4807;48.024;11.726;2023-04-27T04:15:42;95039.09;;;4.47;81.62
9538;BME280;4807;48.024;11.726;2023-04-27T04:18:52;95045.03;;;4.57;81.23
9538;BME280;4807;48.024;11.726;2023-04-27T04:22:01;95051.97;;;4.58;81.61
9538;BME280;4807;48.024;11.726;2023-04-27T04:25:09;95062.47;;;4.42;81.67
9538;BME280;4807;48.024;11.726;2023-04-27T04:28:17;95067.44;;;4.45;82.39
9538;BME280;4807;48.024;11.726;2023-04-27T04:31:26;95062.78;;;4.39;82.99
9538;BME280;4807;48.024;11.726;2023-04-27T04:34:37;95067.28;;;4.54;82.30
9538;BME280;4807;48.024;11.726;2023-04-27T04:37:45;95067.16;;;4.72;81.72
9538;BME280;4807;48.024;11.726;2023-04-27T04:40:54;95081.34;;;4.87;82.34
9538;BME280;4807;48.024;11.726;2023-04-27T04:44:03;95080.75;;;5.02;81.05
9538;BME280;4807;48.024;11.726;2023-04-27T04:47:11;95079.41;;;5.14;80.58
9538;BME280;4807;48.024;11.726;2023-04-27T04:50:21;95075.47;;;5.26;79.79
9538;BME280;4807;48.024;11.726;2023-04-27T04:53:30;95075.63;;;5.32;79.91
9538;BME280;4807;48.024;11.726;2023-04-27T04:56:38;95064.38;;;5.47;79.71
9538;BME280;4807;48.024;11.726;2023-04-27T04:59:46;95063.88;;;5.59;78.90
9538;BME280;4807;48.024;11.726;2023-04-27T05:02:55;95072.59;;;5.68;79.00
9538;BME280;4807;48.024;11.726;2023-04-27T05:06:05;95074.59;;;5.66;79.09
9538;BME280;4807;48.024;11.726;2023-04-27T05:09:13;95082.38;;;5.67;79.70
9538;BME280;4807;48.024;11.726;2023-04-27T05:12:22;95082.97;;;5.94;78.42
9538;BME280;4807;48.024;11.726;2023-04-27T05:15:30;95084.94;;;6.08;77.76
9538;BME280;4807;48.024;11.726;2023-04-27T05:18:38;95096.97;;;6.10;77.66
9538;BME280;4807;48.024;11.726;2023-04-27T05:21:48;95108.84;;;6.23;77.24
9538;BME280;4807;48.024;11.726;2023-04-27T05:24:57;95089.97;;;6.34;77.23
9538;BME280;4807;48.024;11.726;2023-04-27T05:28:05;95088.22;;;6.49;76.85
9538;BME280;4807;48.024;11.726;2023-04-27T05:31:14;95094.63;;;6.63;76.54
9538;BME280;4807;48.024;11.726;2023-04-27T05:34:22;95096.03;;;6.73;75.71
9538;BME280;4807;48.024;11.726;2023-04-27T05:37:31;95092.47;;;6.97;75.04
9538;BME280;4807;48.024;11.726;2023-04-27T05:40:39;95081.56;;;7.15;74.52
9538;BME280;4807;48.024;11.726;2023-04-27T05:43:48;95087.13;;;7.28;74.82
9538;BME280;4807;48.024;11.726;2023-04-27T05:46:56;95083.00;;;7.63;73.13
9538;BME280;4807;48.024;11.726;2023-04-27T05:50:05;95092.84;;;7.92;72.47
9538;BME280;4807;48.024;11.726;2023-04-27T05:53:15;95105.03;;;8.16;71.51
9538;BME280;4807;48.024;11.726;2023-04-27T05:56:24;95110.19;;;8.32;71.47
9538;BME280;4807;48.024;11.726;2023-04-27T05:59:32;95111.09;;;8.39;71.21
9538;BME280;4807;48.024;11.726;2023-04-27T06:02:40;95113.66;;;8.47;69.69
9538;BME280;4807;48.024;11.726;2023-04-27T06:05:53;95102.28;;;8.24;70.05
9538;BME280;4807;48.024;11.726;2023-04-27T06:09:06;95105.94;;;8.52;70.56
9538;BME280;4807;48.024;11.726;2023-04-27T06:12:14;95105.09;;;8.81;69.93
9538;BME280;4807;48.024;11.726;2023-04-27T06:15:22;95105.31;;;9.15;69.44
9538;BME280;4807;48.024;11.726;2023-04-27T06:18:30;95100.00;;;9.37;68.58
9538;BME280;4807;48.024;11.726;2023-04-27T06:21:39;95101.69;;;9.66;66.90
9538;BME280;4807;48.024;11.726;2023-04-27T06:24:49;95096.06;;;10.03;66.48
9538;BME280;4807;48.024;11.726;2023-04-27T06:27:57;95100.69;;;10.50;63.56
9538;BME280;4807;48.024;11.726;2023-04-27T06:31:06;95104.25;;;10.70;62.50
9538;BME280;4807;48.024;11.726;2023-04-27T06:34:14;95112.69;;;9.84;65.38
9538;BME280;4807;48.024;11.726;2023-04-27T06:37:22;95122.84;;;10.02;65.47
9538;BME280;4807;48.024;11.726;2023-04-27T06:40:32;95118.59;;;9.37;67.01
9538;BME280;4807;48.024;11.726;2023-04-27T06:43:41;95112.69;;;8.99;69.66
9538;BME280;4807;48.024;11.726;2023-04-27T06:46:49;95111.31;;;9.24;70.52
9538;BME280;4807;48.024;11.726;2023-04-27T06:49:57;95117.66;;;9.08;69.27
9538;BME280;4807;48.024;11.726;2023-04-27T06:53:06;95118.28;;;8.89;70.32
9538;BME280;4807;48.024;11.726;2023-04-27T06:56:16;95123.44;;;9.33;69.38
9538;BME280;4807;48.024;11.726;2023-04-27T06:59:24;95119.38;;;10.01;65.99
9538;BME280;4807;48.024;11.726;2023-04-27T07:02:33;95119.59;;;10.27;65.32
9538;BME280;4807;48.024;11.726;2023-04-27T07:05:41;95125.81;;;10.76;64.59
9538;BME280;4807;48.024;11.726;2023-04-27T07:08:49;95124.75;;;11.18;63.08
9538;BME280;4807;48.024;11.726;2023-04-27T07:11:59;95121.06;;;10.71;63.54
9538;BME280;4807;48.024;11.726;2023-04-27T07:15:09;95111.63;;;11.09;63.08
9538;BME280;4807;48.024;11.726;2023-04-27T07:18:17;95120.78;;;10.25;64.79
9538;BME280;4807;48.024;11.726;2023-04-27T07:21:26;95119.66;;;10.41;63.56
9538;BME280;4807;48.024;11.726;2023-04-27T07:24:34;95118.88;;;10.47;64.04
9538;BME280;4807;48.024;11.726;2023-04-27T07:27:44;95108.78;;;11.18;63.00
9538;BME280;4807;48.024;11.726;2023-04-27T07:30:52;95118.47;;;10.84;63.94
9538;BME280;4807;48.024;11.726;2023-04-27T07:34:01;95119.66;;;11.36;63.40
9538;BME280;4807;48.024;11.726;2023-04-27T07:37:09;95117.31;;;11.87;62.54
9538;BME280;4807;48.024;11.726;2023-04-27T07:40:18;95117.09;;;12.08;60.56
9538;BME280;4807;48.024;11.726;2023-04-27T07:43:30;95113.19;;;12.37;61.08
9538;BME280;4807;48.024;11.726;2023-04-27T07:46:38;95119.31;;;12.57;57.91
9538;BME280;4807;48.024;11.726;2023-04-27T07:49:47;95121.13;;;11.45;62.30
9538;BME280;4807;48.024;11.726;2023-04-27T07:52:56;95123.44;;;10.53;65.18
9538;BME280;4807;48.024;11.726;2023-04-27T07:56:05;95114.97;;;10.77;65.20
9538;BME280;4807;48.024;11.726;2023-04-27T07:59:15;95120.38;;;11.84;62.55
9538;BME280;4807;48.024;11.726;2023-04-27T08:02:25;95118.16;;;12.14;59.65
9538;BME280;4807;48.024;11.726;2023-04-27T08:05:36;95126.38;;;12.06;60.13
9538;BME280;4807;48.024;11.726;2023-04-27T08:08:46;95124.88;;;12.43;60.17
9538;BME280;4807;48.024;11.726;2023-04-27T08:11:56;95123.66;;;12.52;58.91
9538;BME280;4807;48.024;11.726;2023-04-27T08:15:07;95130.81;;;11.72;61.69
9538;BME280;4807;48.024;11.726;2023-04-27T08:18:16;95128.34;;;11.64;60.94
9538;BME280;4807;48.024;11.726;2023-04-27T08:21:25;95125.94;;;11.89;61.76
9538;BME280;4807;48.024;11.726;2023-04-27T08:24:34;95128.50;;;13.77;58.24
9538;BME280;4807;48.024;11.726;2023-04-27T08:27:43;95131.63;;;12.72;58.13
9538;BME280;4807;48.024;11.726;2023-04-27T08:30:53;95126.72;;;12.42;59.40
9538;BME280;4807;48.024;11.726;2023-04-27T08:34:01;95126.28;;;12.72;58.70
9538;BME280;4807;48.024;11.726;2023-04-27T08:37:09;95129.44;;;13.89;57.05
9538;BME280;4807;48.024;11.726;2023-04-27T08:40:18;95132.00;;;13.78;54.21
9538;BME280;4807;48.024;11.726;2023-04-27T08:43:32;95124.97;;;12.94;58.53
9538;BME280;4807;48.024;11.726;2023-04-27T08:46:41;95130.00;;;12.64;57.77
9538;BME280;4807;48.024;11.726;2023-04-27T08:49:50;95130.41;;;13.70;53.62
9538;BME280;4807;48.024;11.726;2023-04-27T08:52:58;95132.00;;;15.13;50.66
9538;BME280;4807;48.024;11.726;2023-04-27T08:56:07;95125.34;;;13.04;55.27
9538;BME280;4807;48.024;11.726;2023-04-27T08:59:15;95127.16;;;12.46;58.44
9538;BME280;4807;48.024;11.726;2023-04-27T09:02:26;95131.78;;;12.83;55.67
9538;BME280;4807;48.024;11.726;2023-04-27T09:05:35;95124.44;;;14.49;50.56
9538;BME280;4807;48.024;11.726;2023-04-27T09:08:52;95116.22;;;13.63;52.74
9538;BME280;4807;48.024;11.726;2023-04-27T09:12:00;95118.69;;;13.26;53.13
9538;BME280;4807;48.024;11.726;2023-04-27T09:15:09;95118.94;;;13.88;52.44
9538;BME280;4807;48.024;11.726;2023-04-27T09:18:21;95114.84;;;14.60;52.21
9538;BME280;4807;48.024;11.726;2023-04-27T09:21:30;95113.66;;;14.56;51.54
9538;BME280;4807;48.024;11.726;2023-04-27T09:24:49;95107.38;;;15.35;49.19
9538;BME280;4807;48.024;11.726;2023-04-27T09:27:59;95113.41;;;15.48;46.15
9538;BME280;4807;48.024;11.726;2023-04-27T09:31:08;95111.38;;;15.14;46.83
9538;BME280;4807;48.024;11.726;2023-04-27T09:34:19;95110.09;;;14.12;48.20
9538;BME280;4807;48.024;11.726;2023-04-27T09:37:28;95108.19;;;14.44;47.50
9538;BME280;4807;48.024;11.726;2023-04-27T09:40:38;95102.06;;;14.98;47.52
9538;BME280;4807;48.024;11.726;2023-04-27T09:43:47;95101.59;;;15.56;46.11
9538;BME280;4807;48.024;11.726;2023-04-27T09:46:58;95101.09;;;14.93;45.67
9538;BME280;4807;48.024;11.726;2023-04-27T09:50:11;95095.78;;;14.25;47.98
9538;BME280;4807;48.024;11.726;2023-04-27T09:53:24;95097.00;;;14.04;48.62
9538;BME280;4807;48.024;11.726;2023-04-27T09:56:57;95094.91;;;15.10;46.89
9538;BME280;4807;48.024;11.726;2023-04-27T10:00:22;95093.34;;;16.46;45.74
9538;BME280;4807;48.024;11.726;2023-04-27T10:03:49;95091.38;;;17.28;44.59
9538;BME280;4807;48.024;11.726;2023-04-27T10:07:06;95082.94;;;16.37;43.31
9538;BME280;4807;48.024;11.726;2023-04-27T10:10:16;95074.78;;;16.67;42.81
9538;BME280;4807;48.024;11.726;2023-04-27T10:13:26;95071.47;;;15.65;43.12
9538;BME280;4807;48.024;11.726;2023-04-27T10:16:44;95087.22;;;14.16;45.18
9538;BME280;4807;48.024;11.726;2023-04-27T10:19:56;95080.41;;;14.63;45.14
9538;BME280;4807;48.024;11.726;2023-04-27T10:23:06;95076.25;;;13.99;46.51
9538;BME280;4807;48.024;11.726;2023-04-27T10:26:22;95071.47;;;14.26;45.84
9538;BME280;4807;48.024;11.726;2023-04-27T10:29:39;95073.03;;;14.77;44.85
9538;BME280;4807;48.024;11.726;2023-04-27T10:32:53;95070.53;;;15.30;46.41
9538;BME280;4807;48.024;11.726;2023-04-27T10:36:02;95065.25;;;15.95;44.60
9538;BME280;4807;48.024;11.726;2023-04-27T10:39:35;95063.06;;;16.50;42.63
9538;BME280;4807;48.024;11.726;2023-04-27T10:42:54;95063.63;;;16.87;42.39
9538;BME280;4807;48.024;11.726;2023-04-27T10:46:07;95071.94;;;16.04;41.00
9538;BME280;4807;48.024;11.726;2023-04-27T10:49:16;95068.97;;;15.52;41.23
9538;BME280;4807;48.024;11.726;2023-04-27T10:52:25;95064.28;;;17.17;39.85
9538;BME280;4807;48.024;11.726;2023-04-27T10:55:36;95069.06;;;15.16;42.42
9538;BME280;4807;48.024;11.726;2023-04-27T10:58:44;95065.59;;;14.79;43.71
9538;BME280;4807;48.024;11.726;2023-04-27T11:01:55;95064.75;;;14.78;44.80
9538;BME280;4807;48.024;11.726;2023-04-27T11:05:16;95061.75;;;15.53;42.29
9538;BME280;4807;48.024;11.726;2023-04-27T11:08:25;95059.22;;;16.58;41.29
9538;BME280;4807;48.024;11.726;2023-04-27T11:11:35;95065.34;;;17.05;42.83
9538;BME280;4807;48.024;11.726;2023-04-27T11:14:43;95063.66;;;16.40;41.44
9538;BME280;4807;48.024;11.726;2023-04-27T11:18:03;95064.81;;;16.91;41.57
9538;BME280;4807;48.024;11.726;2023-04-27T11:21:14;95066.38;;;17.15;40.44
9538;BME280;4807;48.024;11.726;2023-04-27T11:24:23;95070.56;;;15.12;44.45
9538;BME280;4807;48.024;11.726;2023-04-27T11:27:38;95075.25;;;14.19;45.68
9538;BME280;4807;48.024;11.726;2023-04-27T11:30:47;95072.44;;;14.32;46.53
9538;BME280;4807;48.024;11.726;2023-04-27T11:34:02;95065.88;;;14.28;46.67
9538;BME280;4807;48.024;11.726;2023-04-27T11:37:20;95071.63;;;14.56;45.60
9538;BME280;4807;48.024;11.726;2023-04-27T11:40:30;95075.28;;;15.88;44.17
9538;BME280;4807;48.024;11.726;2023-04-27T11:43:43;95071.13;;;16.15;42.66
9538;BME280;4807;48.024;11.726;2023-04-27T11:46:55;95075.25;;;15.76;41.21
9538;BME280;4807;48.024;11.726;2023-04-27T11:50:06;95081.03;;;15.32;42.66
9538;BME280;4807;48.024;11.726;2023-04-27T11:53:15;95077.22;;;16.46;41.93
9538;BME280;4807;48.024;11.726;2023-04-27T11:56:34;95085.97;;;16.88;43.11
9538;BME280;4807;48.024;11.726;2023-04-27T11:59:44;95084.66;;;15.97;41.57
9538;BME280;4807;48.024;11.726;2023-04-27T12:02:53;95082.75;;;15.26;45.91
9538;BME280;4807;48.024;11.726;2023-04-27T12:06:01;95091.63;;;14.29;46.75
9538;BME280;4807;48.024;11.726;2023-04-27T12:09:30;95096.72;;;14.12;45.16
9538;BME280;4807;48.024;11.726;2023-04-27T12:12:38;95091.59;;;14.10;48.10
9538;BME280;4807;48.024;11.726;2023-04-27T12:15:48;95091.03;;;14.70;45.30
9538;BME280;4807;48.024;11.726;2023-04-27T12:18:56;95081.50;;;14.92;43.54
9538;BME280;4807;48.024;11.726;2023-04-27T12:22:05;95076.50;;;14.16;46.27
9538;BME280;4807;48.024;11.726;2023-04-27T12:25:14;95081.88;;;14.41;45.56
9538;BME280;4807;48.024;11.726;2023-04-27T12:28:23;95096.97;;;14.10;47.13
9538;BME280;4807;48.024;11.726;2023-04-27T12:31:33;95097.47;;;14.87;47.59
9538;BME280;4807;48.024;11.726;2023-04-27T12:34:41;95093.25;;;15.09;46.43
9538;BME280;4807;48.024;11.726;2023-04-27T12:37:49;95082.31;;;15.11;43.92
9538;BME280;4807;48.024;11.726;2023-04-27T12:41:01;95091.44;;;14.92;45.73
9538;BME280;4807;48.024;11.726;2023-04-27T12:44:09;95078.00;;;15.99;44.38
9538;BME280;4807;48.024;11.726;2023-04-27T12:47:21;95087.59;;;15.65;44.21
9538;BME280;4807;48.024;11.726;2023-04-27T12:50:33;95090.75;;;15.44;45.01
9538;BME280;4807;48.024;11.726;2023-04-27T12:53:43;95087.41;;;14.82;45.57
9538;BME280;4807;48.024;11.726;2023-04-27T12:56:51;95074.16;;;15.54;43.48
9538;BME280;4807;48.024;11.726;2023-04-27T13:00:00;95083.50;;;16.39;43.71
9538;BME280;4807;48.024;11.726;2023-04-27T13:03:12;95072.75;;;16.39;42.61
9538;BME280;4807;48.024;11.726;2023-04-27T13:06:21;95068.88;;;16.00;43.21
9538;BME280;4807;48.024;11.726;2023-04-27T13:09:29;95073.22;;;16.01;44.58
9538;BME280;4807;48.024;11.726;2023-04-27T13:12:38;95074.31;;;15.71;45.74
9538;BME280;4807;48.024;11.726;2023-04-27T13:15:46;95070.16;;;15.86;43.58
9538;BME280;4807;48.024;11.726;2023-04-27T13:18:55;95071.47;;;15.36;44.37
9538;BME280;4807;48.024;11.726;2023-04-27T13:22:03;95073.50;;;15.52;44.61
9538;BME280;4807;48.024;11.726;2023-04-27T13:25:16;95066.13;;;15.65;43.35
9538;BME280;4807;48.024;11.726;2023-04-27T13:28:25;95061.91;;;16.11;43.56
9538;BME280;4807;48.024;11.726;2023-04-27T13:31:34;95056.25;;;15.89;43.27
9538;BME280;4807;48.024;11.726;2023-04-27T13:34:44;95058.59;;;15.86;44.98
9538;BME280;4807;48.024;11.726;2023-04-27T13:37:52;95066.53;;;15.03;47.63
9538;BME280;4807;48.024;11.726;2023-04-27T13:41:01;95070.25;;;14.47;47.36
9538;BME280;4807;48.024;11.726;2023-04-27T13:44:09;95068.41;;;14.47;48.53
9538;BME280;4807;48.024;11.726;2023-04-27T13:47:18;95070.66;;;14.26;47.49
9538;BME280;4807;48.024;11.726;2023-04-27T13:50:28;95066.50;;;14.30;47.76
9538;BME280;4807;48.024;11.726;2023-04-27T13:53:37;95064.75;;;14.42;48.84
9538;BME280;4807;48.024;11.726;2023-04-27T13:56:45;95059.31;;;14.85;48.90
9538;BME280;4807;48.024;11.726;2023-04-27T13:59:53;95055.34;;;15.24;47.17
9538;BME280;4807;48.024;11.726;2023-04-27T14:03:02;95062.19;;;15.20;46.19
9538;BME280;4807;48.024;11.726;2023-04-27T14:06:13;95062.38;;;15.07;48.05
9538;BME280;4807;48.024;11.726;2023-04-27T14:09:22;95043.28;;;15.45;48.91
9538;BME280;4807;48.024;11.726;2023-04-27T14:12:33;95052.25;;;15.39;46.93
9538;BME280;4807;48.024;11.726;2023-04-27T14:15:41;95047.84;;;15.14;46.73
9538;BME280;4807;48.024;11.726;2023-04-27T14:18:50;95038.97;;;15.44;49.81
9538;BME280;4807;48.024;11.726;2023-04-27T14:22:00;95041.38;;;15.63;48.42
9538;BME280;4807;48.024;11.726;2023-04-27T14:25:10;95036.41;;;16.14;46.19
9538;BME280;4807;48.024;11.726;2023-04-27T14:28:18;95034.00;;;16.12;45.02
9538;BME280;4807;48.024;11.726;2023-04-27T14:31:27;95039.94;;;16.02;45.23
9538;BME280;4807;48.024;11.726;2023-04-27T14:34:35;95038.88;;;16.73;44.37
9538;BME280;4807;48.024;11.726;2023-04-27T14:37:45;95039.56;;;17.21;43.75
9538;BME280;4807;48.024;11.726;2023-04-27T14:40:54;95028.50;;;17.05;42.09
9538;BME280;4807;48.024;11.726;2023-04-27T14:44:06;95022.16;;;16.83;44.28
9538;BME280;4807;48.024;11.726;2023-04-27T14:47:15;95022.97;;;16.72;41.98
9538;BME280;4807;48.024;11.726;2023-04-27T14:50:26;95025.88;;;16.82;41.73
9538;BME280;4807;48.024;11.726;2023-04-27T14:53:36;95024.56;;;16.96;43.13
9538;BME280;4807;48.024;11.726;2023-04-27T14:56:45;95024.69;;;16.90;44.89
9538;BME280;4807;48.024;11.726;2023-04-27T14:59:54;95026.50;;;17.41;42.39
9538;BME280;4807;48.024;11.726;2023-04-27T15:03:03;95019.19;;;17.81;41.62
9538;BME280;4807;48.024;11.726;2023-04-27T15:06:12;95019.81;;;17.43;41.45
9538;BME280;4807;48.024;11.726;2023-04-27T15:09:22;95019.69;;;17.22;43.00
9538;BME280;4807;48.024;11.726;2023-04-27T15:12:30;95020.88;;;16.86;43.81
9538;BME280;4807;48.024;11.726;2023-04-27T15:15:38;95019.16;;;17.08;43.28
9538;BME280;4807;48.024;11.726;2023-04-27T15:18:47;95013.91;;;17.30;43.75
9538;BME280;4807;48.024;11.726;2023-04-27T15:21:55;95014.88;;;17.24;41.93
9538;BME280;4807;48.024;11.726;2023-04-27T15:25:07;95017.88;;;17.10;42.44
9538;BME280;4807;48.024;11.726;2023-04-27T15:28:17;95018.78;;;17.16;42.99
9538;BME280;4807;48.024;11.726;2023-04-27T15:31:26;95018.34;;;17.07;40.68
9538;BME280;4807;48.024;11.726;2023-04-27T15:34:34;95018.84;;;17.21;41.22
9538;BME280;4807;48.024;11.726;2023-04-27T15:37:42;95020.09;;;16.27;42.37
9538;BME280;4807;48.024;11.726;2023-04-27T15:40:52;95016.09;;;16.06;44.05
9538;BME280;4807;48.024;11.726;2023-04-27T15:44:01;95015.28;;;16.17;44.93
9538;BME280;4807;48.024;11.726;2023-04-27T15:47:09;95012.94;;;16.56;44.69
9538;BME280;4807;48.024;11.726;2023-04-27T15:50:18;95004.09;;;16.09;43.20
9538;BME280;4807;48.024;11.726;2023-04-27T15:53:29;95003.81;;;15.75;44.45
9538;BME280;4807;48.024;11.726;2023-04-27T15:56:39;95000.56;;;15.85;44.85
9538;BME280;4807;48.024;11.726;2023-04-27T15:59:47;95008.69;;;15.67;45.55
9538;BME280;4807;48.024;11.726;2023-04-27T16:02:56;95002.31;;;15.38;44.93
9538;BME280;4807;48.024;11.726;2023-04-27T16:06:05;95011.84;;;15.22;45.64
9538;BME280;4807;48.024;11.726;2023-04-27T16:09:14;95020.91;;;15.21;46.65
9538;BME280;4807;48.024;11.726;2023-04-27T16:12:24;95018.75;;;15.41;46.06
9538;BME280;4807;48.024;11.726;2023-04-27T16:15:33;95011.19;;;15.50;46.66
9538;BME280;4807;48.024;11.726;2023-04-27T16:18:41;95019.00;;;15.70;46.54
9538;BME280;4807;48.024;11.726;2023-04-27T16:21:50;95003.84;;;15.87;47.04
9538;BME280;4807;48.024;11.726;2023-04-27T16:24:58;95008.88;;;15.95;45.89
9538;BME280;4807;48.024;11.726;2023-04-27T16:28:07;95000.13;;;15.88;46.60
9538;BME280;4807;48.024;11.726;2023-04-27T16:31:16;94995.56;;;16.12;45.38
9538;BME280;4807;48.024;11.726;2023-04-27T16:34:25;94994.97;;;15.98;45.69
9538;BME280;4807;48.024;11.726;2023-04-27T16:37:33;95002.66;;;16.06;45.70
9538;BME280;4807;48.024;11.726;2023-04-27T16:40:42;95001.63;;;15.95;46.58
9538;BME280;4807;48.024;11.726;2023-04-27T16:43:52;94999.63;;;15.91;45.16
9538;BME280;4807;48.024;11.726;2023-04-27T16:47:00;94999.63;;;15.91;45.79
9538;BME280;4807;48.024;11.726;2023-04-27T16:50:10;95005.47;;;15.88;44.95
9538;BME280;4807;48.024;11.726;2023-04-27T16:53:18;95010.16;;;15.51;44.86
9538;BME280;4807;48.024;11.726;2023-04-27T16:56:30;95002.28;;;15.56;44.93
9538;BME280;4807;48.024;11.726;2023-04-27T16:59:40;95007.16;;;16.87;42.60
9538;BME280;4807;48.024;11.726;2023-04-27T17:02:48;95004.50;;;18.61;40.35